createdAt,value
2023-01-23T00:01:25.354Z,40.90
2023-01-23T00:08:15.083Z,40.10
2023-01-23T00:10:42.092Z,43.10
2023-01-23T00:13:09.141Z,36.60
2023-01-23T00:15:39.714Z,25.50
2023-01-23T00:18:06.827Z,25.20
2023-01-23T00:20:33.859Z,27.30
2023-01-23T00:23:01.217Z,27.40
2023-01-23T00:25:28.106Z,28.00
2023-01-23T00:27:55.002Z,20.20
2023-01-23T00:30:22.066Z,29.00
2023-01-23T00:32:48.981Z,24.90
2023-01-23T00:35:16.059Z,21.80
2023-01-23T00:37:43.163Z,23.00
2023-01-23T00:40:12.005Z,21.80
2023-01-23T00:42:39.140Z,20.80
2023-01-23T00:45:06.889Z,20.00
2023-01-23T00:47:33.805Z,19.60
2023-01-23T00:50:00.802Z,22.50
2023-01-23T00:52:28.224Z,18.20
2023-01-23T00:54:55.167Z,16.30
2023-01-23T00:57:22.105Z,16.60
2023-01-23T00:59:49.073Z,17.30
2023-01-23T01:02:16.074Z,18.40
2023-01-23T01:04:43.018Z,17.70
2023-01-23T01:07:10.101Z,13.20
2023-01-23T01:09:37.061Z,15.30
2023-01-23T01:12:04.171Z,15.90
2023-01-23T01:14:31.066Z,15.40
2023-01-23T01:16:58.860Z,13.40
2023-01-23T01:19:25.828Z,13.30
2023-01-23T01:21:52.852Z,13.30
2023-01-23T01:24:19.733Z,14.60
2023-01-23T01:26:46.740Z,12.80
2023-01-23T01:29:13.701Z,14.00
2023-01-23T01:31:43.541Z,14.30
2023-01-23T01:34:10.480Z,13.40
2023-01-23T01:36:37.503Z,12.80
2023-01-23T01:39:04.594Z,15.30
2023-01-23T01:41:32.431Z,14.00
2023-01-23T01:44:00.389Z,16.20
2023-01-23T01:46:32.519Z,18.90
2023-01-23T01:49:02.637Z,16.10
2023-01-23T01:51:37.559Z,17.50
2023-01-23T01:54:25.405Z,17.60
2023-01-23T01:57:16.718Z,18.10
2023-01-23T01:59:49.776Z,15.70
2023-01-23T02:02:23.207Z,17.00
2023-01-23T02:04:52.954Z,17.00
2023-01-23T02:07:26.485Z,19.30
2023-01-23T02:09:53.763Z,19.30
2023-01-23T02:12:20.882Z,14.20
2023-01-23T02:14:47.966Z,18.60
2023-01-23T02:17:15.049Z,17.00
2023-01-23T02:19:52.128Z,16.40
2023-01-23T02:22:54.165Z,15.90
2023-01-23T02:27:58.216Z,17.90
2023-01-23T02:30:25.904Z,14.80
2023-01-23T02:32:53.595Z,16.70
2023-01-23T02:35:28.218Z,17.00
2023-01-23T02:37:58.984Z,13.50
2023-01-23T02:40:36.980Z,13.90
2023-01-23T02:43:05.176Z,13.70
2023-01-23T02:45:32.945Z,11.20
2023-01-23T02:48:01.744Z,11.20
2023-01-23T02:50:29.347Z,11.70
2023-01-23T02:52:58.096Z,11.70
2023-01-23T02:55:33.342Z,12.50
2023-01-23T02:58:19.729Z,9.00
2023-01-23T03:00:47.154Z,10.00
2023-01-23T03:03:14.308Z,9.60
2023-01-23T03:05:41.185Z,12.80
2023-01-23T03:08:08.185Z,11.90
2023-01-23T03:10:35.235Z,12.40
2023-01-23T03:13:03.605Z,14.50
2023-01-23T03:15:32.253Z,12.90
2023-01-23T03:18:00.768Z,12.60
2023-01-23T03:20:28.817Z,17.40
2023-01-23T03:22:57.103Z,14.20
2023-01-23T03:25:24.272Z,14.10
2023-01-23T03:27:53.042Z,13.60
2023-01-23T03:30:22.246Z,13.50
2023-01-23T03:32:51.316Z,15.20
2023-01-23T03:35:19.879Z,16.60
2023-01-23T03:37:48.269Z,19.80
2023-01-23T03:41:05.545Z,25.80
2023-01-23T03:43:33.306Z,25.80
2023-01-23T03:46:00.309Z,21.00
2023-01-23T03:48:28.191Z,20.90
2023-01-23T03:50:55.193Z,22.70
2023-01-23T03:53:23.457Z,25.40
2023-01-23T03:55:50.792Z,26.70
2023-01-23T03:58:19.316Z,24.00
2023-01-23T04:00:47.508Z,25.50
2023-01-23T04:03:14.525Z,26.00
2023-01-23T04:05:42.091Z,26.40
2023-01-23T04:08:09.256Z,24.40
2023-01-23T04:10:36.494Z,32.30
2023-01-23T04:13:07.122Z,24.90
2023-01-23T04:15:34.113Z,27.80
2023-01-23T04:18:02.356Z,26.90
2023-01-23T04:20:29.783Z,26.20
2023-01-23T04:22:57.651Z,24.40
2023-01-23T04:25:24.704Z,27.20
2023-01-23T04:27:52.542Z,27.90
2023-01-23T04:30:20.901Z,23.00
2023-01-23T04:32:48.124Z,30.50
2023-01-23T04:35:16.674Z,26.30
2023-01-23T04:37:43.766Z,29.00
2023-01-23T04:40:11.606Z,34.70
2023-01-23T04:43:07.696Z,27.10
2023-01-23T04:45:39.414Z,24.70
2023-01-23T04:48:29.425Z,25.40
2023-01-23T04:50:56.458Z,28.70
2023-01-23T04:53:23.367Z,25.50
2023-01-23T04:55:56.351Z,26.10
2023-01-23T04:58:23.351Z,25.90
2023-01-23T05:00:50.376Z,20.00
2023-01-23T05:03:18.095Z,25.10
2023-01-23T05:05:47.996Z,26.70
2023-01-23T05:08:14.932Z,29.90
2023-01-23T05:10:43.184Z,22.50
2023-01-23T05:13:10.944Z,31.60
2023-01-23T05:15:38.281Z,26.30
2023-01-23T05:18:05.335Z,29.90
2023-01-23T05:20:34.548Z,24.00
2023-01-23T05:23:02.386Z,29.50
2023-01-23T05:25:37.503Z,21.40
2023-01-23T05:28:04.595Z,27.00
2023-01-23T05:30:31.739Z,33.10
2023-01-23T05:33:12.067Z,26.50
2023-01-23T05:35:39.627Z,25.00
2023-01-23T05:38:06.684Z,26.00
2023-01-23T05:40:33.652Z,27.60
2023-01-23T05:43:34.363Z,26.10
2023-01-23T05:46:33.778Z,28.90
2023-01-23T05:49:01.069Z,24.20
2023-01-23T05:51:32.624Z,25.10
2023-01-23T05:54:00.790Z,28.70
2023-01-23T05:56:27.849Z,23.60
2023-01-23T05:59:30.627Z,25.30
2023-01-23T06:02:13.698Z,25.80
2023-01-23T06:04:59.182Z,29.60
2023-01-23T06:07:33.048Z,28.80
2023-01-23T06:10:00.319Z,27.90
2023-01-23T06:12:27.337Z,28.50
2023-01-23T06:14:54.727Z,31.80
2023-01-23T06:17:22.330Z,25.70
2023-01-23T06:19:49.295Z,31.90
2023-01-23T06:22:16.441Z,28.10
2023-01-23T06:25:05.916Z,24.50
2023-01-23T06:27:32.999Z,23.10
2023-01-23T06:30:02.712Z,26.40
2023-01-23T06:32:30.747Z,24.50
2023-01-23T06:34:57.648Z,26.20
2023-01-23T06:37:24.573Z,25.40
2023-01-23T06:39:52.037Z,20.90
2023-01-23T06:42:20.421Z,26.40
2023-01-23T06:44:48.791Z,21.20
2023-01-23T06:47:16.809Z,19.40
2023-01-23T10:31:42.782Z,27.80
2023-01-23T10:34:10.220Z,27.70
2023-01-23T10:36:54.911Z,25.70
2023-01-23T10:40:01.966Z,26.80
2023-01-23T10:42:29.054Z,24.40
2023-01-23T10:44:56.031Z,22.80
2023-01-23T10:47:37.154Z,22.00
2023-01-23T10:50:06.449Z,28.40
2023-01-23T10:52:44.866Z,22.50
2023-01-23T10:55:24.495Z,24.40
2023-01-23T10:57:54.734Z,23.00
2023-01-23T11:00:45.010Z,29.80
2023-01-23T11:03:21.160Z,28.20
2023-01-23T11:05:53.564Z,31.20
2023-01-23T11:08:27.720Z,27.60
2023-01-23T11:10:55.199Z,23.30
2023-01-23T11:13:31.245Z,29.70
2023-01-23T11:15:58.232Z,27.80
2023-01-23T11:18:55.340Z,30.60
2023-01-23T11:21:29.413Z,26.00
2023-01-23T11:24:39.776Z,25.30
2023-01-23T11:27:18.169Z,22.70
2023-01-23T11:29:52.540Z,30.10
2023-01-23T11:32:19.611Z,26.00
2023-01-23T11:34:49.893Z,26.20
2023-01-23T11:37:28.421Z,24.00
2023-01-23T11:40:02.005Z,24.00
2023-01-23T11:42:29.120Z,29.50
2023-01-23T11:44:58.431Z,27.60
2023-01-23T11:47:28.574Z,21.10
2023-01-23T11:50:04.458Z,24.80
2023-01-23T11:52:36.994Z,25.20
2023-01-23T11:55:18.832Z,23.20
2023-01-23T11:57:54.885Z,22.30
2023-01-23T12:00:28.051Z,18.30
2023-01-23T12:03:24.937Z,22.70
2023-01-23T12:06:20.279Z,23.90
2023-01-23T12:08:59.771Z,22.80
2023-01-23T12:11:27.558Z,21.60
2023-01-23T12:14:12.738Z,19.90
2023-01-23T12:17:09.150Z,22.80
2023-01-23T12:20:05.292Z,19.70
2023-01-23T12:22:50.937Z,23.70
2023-01-23T12:25:34.703Z,21.40
2023-01-23T12:28:09.051Z,25.50
2023-01-23T12:31:00.491Z,19.40
2023-01-23T12:33:46.099Z,29.70
2023-01-23T12:36:31.741Z,22.90
2023-01-23T12:39:17.356Z,30.40
2023-01-23T12:41:48.567Z,23.60
2023-01-23T12:44:20.659Z,27.20
2023-01-23T12:46:56.521Z,18.80
2023-01-23T12:49:31.096Z,25.30
2023-01-23T12:52:03.718Z,26.90
2023-01-23T12:54:38.399Z,25.70
2023-01-23T12:57:06.020Z,29.80
2023-01-23T12:59:55.251Z,19.90
2023-01-23T13:02:25.251Z,21.80
2023-01-23T13:05:24.056Z,22.80
2023-01-23T13:08:23.736Z,21.30
2023-01-23T13:11:33.760Z,24.10
2023-01-23T13:14:01.675Z,21.60
2023-01-23T13:16:30.047Z,24.40
2023-01-23T13:19:16.258Z,20.10
2023-01-23T13:22:27.715Z,20.30
2023-01-23T13:25:17.291Z,17.30
2023-01-23T13:27:55.815Z,25.20
2023-01-23T13:30:33.263Z,28.30
2023-01-23T13:33:01.912Z,19.60
2023-01-23T13:35:44.947Z,22.40
2023-01-23T13:38:30.375Z,21.80
2023-01-23T13:41:11.701Z,29.40
2023-01-23T13:43:42.924Z,33.40
2023-01-23T14:22:05.689Z,30.20
2023-01-23T14:24:51.801Z,32.20
2023-01-23T14:27:30.501Z,35.80
2023-01-23T14:30:14.174Z,31.60
2023-01-23T14:32:41.235Z,30.80
2023-01-23T14:35:40.357Z,29.80
2023-01-23T14:38:08.049Z,31.60
2023-01-23T14:40:49.224Z,31.00
2023-01-23T14:43:20.359Z,30.30
2023-01-23T14:45:48.268Z,27.50
2023-01-23T14:48:16.145Z,28.60
2023-01-23T14:50:43.268Z,30.00
2023-01-23T14:53:14.631Z,27.50
2023-01-23T14:55:42.959Z,27.00
2023-01-23T14:58:15.395Z,29.40
2023-01-23T15:00:42.316Z,31.40
2023-01-23T15:03:12.533Z,32.50
2023-01-23T15:05:41.212Z,27.10
2023-01-23T15:08:20.483Z,30.00
2023-01-23T15:10:49.082Z,33.80
2023-01-23T15:13:48.882Z,28.10
2023-01-23T15:16:26.413Z,29.20
2023-01-23T15:18:54.551Z,31.80
2023-01-23T15:21:27.160Z,25.20
2023-01-23T15:24:06.299Z,34.90
2023-01-23T15:26:37.150Z,31.50
2023-01-23T15:29:10.159Z,35.40
2023-01-23T15:31:40.403Z,28.70
2023-01-23T15:34:14.595Z,33.40
2023-01-23T15:36:56.347Z,28.80
2023-01-23T15:39:27.386Z,33.40
2023-01-23T15:41:56.659Z,36.40
2023-01-23T15:44:27.873Z,28.90
2023-01-23T15:46:57.281Z,30.10
2023-01-23T15:49:26.577Z,27.40
2023-01-23T15:51:58.246Z,26.50
2023-01-23T15:54:34.409Z,25.70
2023-01-23T15:57:07.870Z,27.20
2023-01-23T15:59:37.381Z,24.50
2023-01-23T16:02:07.181Z,25.60
2023-01-23T17:18:33.691Z,42.70
2023-01-23T17:21:03.788Z,42.40
2023-01-23T17:23:32.408Z,38.40
2023-01-23T17:26:02.702Z,40.10
2023-01-23T17:28:30.808Z,47.00
2023-01-23T17:31:00.642Z,42.00
2023-01-23T17:33:32.509Z,41.40
2023-01-23T17:36:01.017Z,41.70
2023-01-23T17:38:34.615Z,48.80
2023-01-23T17:41:04.761Z,41.00
2023-01-23T17:43:33.193Z,46.80
2023-01-23T17:46:01.526Z,51.40
2023-01-23T17:48:30.849Z,46.10
2023-01-23T17:50:59.213Z,44.40
2023-01-23T17:53:28.138Z,46.70
2023-01-23T17:55:56.404Z,51.90
2023-01-23T17:58:26.006Z,43.80
2023-01-23T18:00:56.251Z,42.00
2023-01-23T18:03:25.045Z,41.50
2023-01-23T18:05:53.173Z,49.20
2023-01-23T18:08:24.799Z,44.90
2023-01-23T18:13:46.525Z,40.20
2023-01-23T18:16:20.258Z,46.70
2023-01-23T18:18:53.219Z,48.10
2023-01-23T18:21:21.786Z,45.70
2023-01-23T18:23:50.264Z,47.30
2023-01-23T18:26:43.363Z,36.40
2023-01-23T18:29:17.795Z,41.70
2023-01-23T18:32:01.748Z,47.50
2023-01-23T18:34:52.134Z,47.10
2023-01-23T18:37:41.512Z,46.40
2023-01-23T18:40:22.065Z,51.80
2023-01-23T18:45:27.895Z,44.90
2023-01-23T18:47:57.357Z,46.70
2023-01-23T18:50:27.158Z,46.50
2023-01-23T18:53:11.906Z,48.80
2023-01-23T18:55:47.579Z,48.10
2023-01-23T18:58:29.867Z,48.00
2023-01-23T19:01:18.547Z,43.50
2023-01-23T19:03:46.844Z,50.20
2023-01-23T19:06:23.646Z,45.70
2023-01-23T19:08:53.695Z,42.40
2023-01-23T19:11:46.549Z,45.30
2023-01-23T19:14:36.616Z,46.60
2023-01-23T19:17:18.282Z,48.50
2023-01-23T19:19:56.967Z,46.30
2023-01-23T19:22:25.231Z,54.80
2023-01-23T19:24:53.467Z,48.00
2023-01-23T19:27:23.201Z,55.30
2023-01-23T19:29:51.992Z,48.00
2023-01-23T19:32:20.459Z,43.20
2023-01-23T19:34:48.725Z,46.50
2023-01-23T19:37:17.160Z,48.00
2023-01-23T19:39:45.632Z,46.90
2023-01-23T19:42:14.927Z,44.80
2023-01-23T19:44:44.622Z,44.40
2023-01-23T19:47:12.809Z,53.90
2023-01-23T19:49:41.206Z,45.50
2023-01-23T19:52:13.247Z,46.50
2023-01-23T19:57:09.399Z,48.80
2023-01-23T19:59:37.618Z,48.80
2023-01-23T20:02:16.014Z,44.10
2023-01-23T20:04:44.397Z,43.00
2023-01-23T20:07:12.619Z,66.80
2023-01-23T20:09:41.054Z,42.40
2023-01-23T20:12:10.950Z,39.60
2023-01-23T20:14:39.043Z,39.10
2023-01-23T20:17:10.524Z,44.20
2023-01-23T20:19:39.038Z,44.00
2023-01-23T20:22:07.288Z,41.70
2023-01-23T20:24:35.672Z,42.10
2023-01-23T20:27:04.549Z,43.00
2023-01-23T20:29:33.306Z,42.80
2023-01-23T20:32:01.679Z,41.10
2023-01-23T20:34:30.265Z,42.00
2023-01-23T20:36:58.533Z,43.70
2023-01-23T20:39:28.572Z,40.90
2023-01-23T20:41:57.027Z,37.90
2023-01-23T20:44:25.192Z,47.70
2023-01-23T20:46:53.389Z,40.80
2023-01-23T20:49:23.575Z,43.30
2023-01-23T20:51:51.709Z,36.90
2023-01-23T20:54:21.887Z,38.50
2023-01-23T20:56:50.046Z,48.10
2023-01-23T20:59:23.115Z,35.90
2023-01-23T21:02:09.831Z,34.90
2023-01-23T21:04:38.839Z,32.60
2023-01-23T21:07:07.136Z,37.20
2023-01-23T21:09:35.717Z,46.60
2023-01-23T21:12:04.397Z,39.40
2023-01-23T21:14:33.041Z,39.00
2023-01-23T21:17:01.678Z,34.80
2023-01-23T21:19:29.926Z,40.10
2023-01-23T21:21:58.106Z,35.60
2023-01-23T21:24:26.383Z,39.40
2023-01-23T21:26:54.745Z,28.80
2023-01-23T21:29:22.960Z,38.30
2023-01-23T21:31:51.783Z,34.40
2023-01-23T21:34:20.101Z,34.40
2023-01-23T21:36:48.288Z,30.50
2023-01-23T21:39:16.666Z,32.10
2023-01-23T21:41:47.459Z,34.90
2023-01-23T21:44:15.596Z,31.60
2023-01-23T21:46:43.990Z,34.40
2023-01-23T21:49:12.499Z,30.70
2023-01-23T21:51:40.921Z,29.90
2023-01-23T21:54:09.276Z,28.30
2023-01-23T21:56:37.999Z,34.20
2023-01-23T21:59:06.105Z,27.50
2023-01-23T22:01:39.549Z,33.90
2023-01-23T22:04:18.522Z,32.90
2023-01-23T22:06:46.921Z,26.80
2023-01-23T22:09:17.442Z,34.10
2023-01-23T22:11:46.123Z,31.80
2023-01-23T22:14:14.907Z,34.00
2023-01-23T22:16:51.216Z,28.40
2023-01-23T22:19:24.146Z,27.10
2023-01-23T22:21:54.563Z,32.00
2023-01-23T22:24:22.899Z,28.90
2023-01-23T22:26:51.642Z,30.60
2023-01-23T22:29:19.860Z,29.90
2023-01-23T22:31:48.269Z,29.90
2023-01-23T22:34:16.474Z,32.60
2023-01-23T22:36:44.751Z,32.00
2023-01-23T22:39:14.039Z,32.00
2023-01-23T22:41:45.065Z,38.30
2023-01-23T22:44:13.422Z,33.90
2023-01-23T22:46:41.525Z,30.90
2023-01-23T22:49:10.490Z,31.60
2023-01-23T22:51:42.313Z,34.40
2023-01-23T22:54:10.623Z,28.10
2023-01-23T22:56:39.173Z,30.60
2023-01-23T22:59:10.496Z,31.00
2023-01-23T23:01:38.989Z,27.80
2023-01-23T23:04:07.085Z,32.60
2023-01-23T23:06:35.396Z,32.80
2023-01-23T23:09:05.506Z,28.20
2023-01-23T23:11:36.031Z,32.40
2023-01-23T23:14:04.540Z,27.90
2023-01-23T23:16:33.047Z,28.20
2023-01-23T23:19:01.945Z,37.90
2023-01-23T23:21:33.881Z,31.40
2023-01-23T23:24:02.466Z,30.90
2023-01-23T23:26:31.821Z,30.20
2023-01-23T23:29:03.632Z,30.90
2023-01-23T23:31:32.446Z,28.90
2023-01-23T23:34:00.643Z,29.90
2023-01-23T23:36:29.155Z,34.20
2023-01-23T23:38:57.451Z,30.50
2023-01-23T23:41:25.649Z,30.70
2023-01-23T23:43:57.600Z,29.70
2023-01-23T23:46:25.987Z,37.30
2023-01-23T23:48:54.160Z,34.30
2023-01-23T23:51:26.833Z,33.90
2023-01-23T23:53:55.817Z,35.20
2023-01-23T23:56:28.291Z,31.00
2023-01-23T23:58:56.664Z,30.70
